createdAt,value
2024-03-15T00:00:19.511Z,100187.16
2024-03-15T00:02:50.377Z,100201.94
2024-03-15T00:05:17.570Z,100198.59
2024-03-15T00:07:47.198Z,100190.25
2024-03-15T00:10:13.797Z,100192.50
2024-03-15T00:12:40.288Z,100196.13
2024-03-15T00:15:07.094Z,100193.66
2024-03-15T00:17:33.669Z,100183.00
2024-03-15T00:20:00.281Z,100176.00
2024-03-15T00:22:26.891Z,100183.19
2024-03-15T00:24:53.483Z,100177.31
2024-03-15T00:27:20.189Z,100162.75
2024-03-15T00:29:46.786Z,100174.97
2024-03-15T00:32:13.342Z,100165.84
2024-03-15T00:34:40.132Z,100173.44
2024-03-15T00:37:07.431Z,100174.84
2024-03-15T00:39:33.986Z,100160.50
2024-03-15T00:42:00.506Z,100171.06
2024-03-15T00:44:27.163Z,100164.78
2024-03-15T00:46:53.676Z,100165.41
2024-03-15T00:49:20.221Z,100161.56
2024-03-15T00:51:47.021Z,100154.41
2024-03-15T00:54:13.917Z,100150.00
2024-03-15T00:56:40.658Z,100156.50
2024-03-15T00:59:09.962Z,100154.28
2024-03-15T01:01:38.954Z,100157.59
2024-03-15T01:04:05.768Z,100151.41
2024-03-15T01:06:32.364Z,100152.25
2024-03-15T01:08:58.921Z,100144.09
2024-03-15T01:11:25.436Z,100152.25
2024-03-15T01:13:56.520Z,100152.25
2024-03-15T01:16:23.024Z,100144.34
2024-03-15T01:18:50.079Z,100154.59
2024-03-15T01:21:16.729Z,100150.22
2024-03-15T01:23:43.834Z,100156.09
2024-03-15T01:26:10.277Z,100151.59
2024-03-15T01:28:36.712Z,100151.47
2024-03-15T01:31:03.384Z,100146.56
2024-03-15T01:33:29.939Z,100145.81
2024-03-15T01:35:56.500Z,100146.56
2024-03-15T01:38:24.806Z,100151.16
2024-03-15T01:40:51.298Z,100148.28
2024-03-15T01:43:17.940Z,100147.63
2024-03-15T01:45:44.845Z,100147.28
2024-03-15T01:48:12.831Z,100151.19
2024-03-15T01:50:40.358Z,100145.06
2024-03-15T01:53:07.263Z,100158.13
2024-03-15T01:55:33.764Z,100148.25
2024-03-15T01:58:03.226Z,100145.91
2024-03-15T02:00:29.802Z,100140.97
2024-03-15T02:02:57.711Z,100150.19
2024-03-15T02:05:24.370Z,100149.22
2024-03-15T02:07:51.628Z,100145.56
2024-03-15T02:10:18.247Z,100155.06
2024-03-15T02:12:45.036Z,100152.59
2024-03-15T02:15:11.888Z,100159.31
2024-03-15T02:17:38.945Z,100162.19
2024-03-15T02:20:07.871Z,100159.19
2024-03-15T02:22:34.755Z,100160.84
2024-03-15T02:25:01.337Z,100157.22
2024-03-15T02:27:29.916Z,100152.06
2024-03-15T02:29:56.863Z,100148.56
2024-03-15T02:32:26.262Z,100152.94
2024-03-15T02:34:53.256Z,100149.44
2024-03-15T02:37:20.609Z,100153.44
2024-03-15T02:39:47.618Z,100146.59
2024-03-15T02:42:14.296Z,100147.72
2024-03-15T02:44:41.126Z,100142.13
2024-03-15T02:47:07.699Z,100146.38
2024-03-15T02:49:34.465Z,100154.38
2024-03-15T02:52:02.037Z,100151.69
2024-03-15T02:54:29.777Z,100148.50
2024-03-15T02:56:56.542Z,100142.13
2024-03-15T02:59:25.142Z,100147.75
2024-03-15T03:01:52.610Z,100147.72
2024-03-15T03:04:19.555Z,100141.59
2024-03-15T03:06:46.903Z,100141.59
2024-03-15T03:09:22.068Z,100141.78
2024-03-15T03:11:48.858Z,100141.19
2024-03-15T03:14:15.407Z,100140.94
2024-03-15T03:16:43.516Z,100139.09
2024-03-15T03:19:10.902Z,100141.28
2024-03-15T03:21:38.189Z,100132.44
2024-03-15T03:24:05.041Z,100134.06
2024-03-15T03:26:31.701Z,100130.31
2024-03-15T03:28:58.237Z,100128.44
2024-03-15T03:31:24.744Z,100140.94
2024-03-15T03:33:51.310Z,100138.34
2024-03-15T03:36:17.958Z,100137.50
2024-03-15T03:38:45.638Z,100136.78
2024-03-15T03:41:12.203Z,100137.50
2024-03-15T03:43:38.698Z,100151.31
2024-03-15T03:46:08.056Z,100138.41
2024-03-15T03:48:34.847Z,100149.38
2024-03-15T03:51:01.782Z,100135.66
2024-03-15T03:53:28.461Z,100140.34
2024-03-15T03:55:54.971Z,100149.84
2024-03-15T03:58:24.386Z,100151.84
2024-03-15T04:00:51.225Z,100152.69
2024-03-15T04:03:18.373Z,100156.53
2024-03-15T04:05:45.922Z,100160.41
2024-03-15T04:08:13.486Z,100149.56
2024-03-15T04:10:40.390Z,100147.53
2024-03-15T04:13:08.138Z,100136.34
2024-03-15T04:15:34.972Z,100142.91
2024-03-15T04:18:04.536Z,100148.03
2024-03-15T04:20:31.256Z,100152.50
2024-03-15T04:22:58.365Z,100154.78
2024-03-15T04:25:25.612Z,100154.59
2024-03-15T04:27:55.024Z,100158.09
2024-03-15T04:30:23.904Z,100156.03
2024-03-15T04:32:51.147Z,100153.56
2024-03-15T04:35:18.885Z,100160.72
2024-03-15T04:37:46.208Z,100154.78
2024-03-15T04:40:15.044Z,100163.38
2024-03-15T04:42:42.292Z,100161.78
2024-03-15T04:45:13.711Z,100168.69
2024-03-15T04:47:43.567Z,100167.63
2024-03-15T04:50:11.539Z,100173.25
2024-03-15T04:52:38.618Z,100169.22
2024-03-15T04:55:05.683Z,100177.53
2024-03-15T04:57:32.307Z,100168.09
2024-03-15T04:59:58.949Z,100180.09
2024-03-15T05:02:25.506Z,100177.06
2024-03-15T05:04:52.377Z,100174.84
2024-03-15T05:07:19.133Z,100176.75
2024-03-15T05:09:45.812Z,100177.41
2024-03-15T05:12:14.026Z,100171.63
2024-03-15T05:14:40.884Z,100168.19
2024-03-15T05:17:07.806Z,100176.75
2024-03-15T05:19:39.059Z,100173.03
2024-03-15T05:22:06.851Z,100171.50
2024-03-15T05:24:33.585Z,100177.72
2024-03-15T05:27:00.350Z,100178.59
2024-03-15T05:29:26.987Z,100179.94
2024-03-15T05:31:53.503Z,100177.94
2024-03-15T05:34:20.036Z,100182.69
2024-03-15T05:36:46.675Z,100190.91
2024-03-15T05:39:13.327Z,100192.22
2024-03-15T05:41:42.997Z,100187.44
2024-03-15T05:44:11.214Z,100191.00
2024-03-15T05:46:38.112Z,100190.13
2024-03-15T05:49:05.053Z,100186.34
2024-03-15T05:51:33.802Z,100188.69
2024-03-15T05:54:00.506Z,100179.44
2024-03-15T05:56:27.214Z,100187.44
2024-03-15T05:58:53.758Z,100188.19
2024-03-15T06:01:20.406Z,100179.63
2024-03-15T06:03:47.131Z,100195.91
2024-03-15T06:06:13.879Z,100188.09
2024-03-15T06:08:40.392Z,100189.63
2024-03-15T06:11:06.987Z,100194.75
2024-03-15T06:13:33.640Z,100191.91
2024-03-15T06:16:00.213Z,100195.22
2024-03-15T06:18:27.023Z,100199.88
2024-03-15T06:20:54.690Z,100196.16
2024-03-15T06:23:21.947Z,100201.97
2024-03-15T06:25:48.848Z,100199.06
2024-03-15T06:28:15.676Z,100202.50
2024-03-15T06:30:46.878Z,100194.31
2024-03-15T06:33:15.222Z,100197.41
2024-03-15T06:35:44.297Z,100201.41
2024-03-15T06:38:41.828Z,100201.03
2024-03-15T06:41:12.443Z,100193.00
2024-03-15T06:43:43.678Z,100192.06
2024-03-15T06:46:25.208Z,100193.53
2024-03-15T06:48:59.564Z,100192.44
2024-03-15T06:51:46.784Z,100201.78
2024-03-15T06:54:15.895Z,100195.50
2024-03-15T06:56:43.307Z,100200.09
2024-03-15T06:59:13.019Z,100201.16
2024-03-15T07:01:40.003Z,100195.06
2024-03-15T07:04:09.633Z,100199.88
2024-03-15T07:06:36.605Z,100201.06
2024-03-15T07:09:06.628Z,100200.50
2024-03-15T07:11:36.272Z,100192.22
2024-03-15T07:14:05.244Z,100194.75
2024-03-15T07:16:32.907Z,100194.97
2024-03-15T07:19:00.806Z,100190.06
2024-03-15T07:21:27.509Z,100187.84
2024-03-15T07:23:54.233Z,100195.78
2024-03-15T07:26:20.828Z,100198.97
2024-03-15T07:28:47.884Z,100194.03
2024-03-15T07:31:14.543Z,100193.09
2024-03-15T07:33:41.332Z,100181.81
2024-03-15T07:36:09.798Z,100183.97
2024-03-15T07:38:36.938Z,100191.56
2024-03-15T07:41:03.711Z,100180.44
2024-03-15T07:43:30.414Z,100185.81
2024-03-15T07:45:57.519Z,100185.28
2024-03-15T07:48:24.418Z,100188.66
2024-03-15T07:50:50.999Z,100186.94
2024-03-15T07:53:18.674Z,100192.06
2024-03-15T07:55:45.196Z,100181.38
2024-03-15T07:58:12.072Z,100184.38
2024-03-15T08:00:40.522Z,100182.13
2024-03-15T08:03:07.653Z,100186.63
2024-03-15T08:05:34.839Z,100174.91
2024-03-15T08:08:01.719Z,100172.06
2024-03-15T08:10:28.527Z,100178.72
2024-03-15T08:12:55.951Z,100178.66
2024-03-15T08:15:22.750Z,100181.97
2024-03-15T08:17:51.746Z,100189.34
2024-03-15T08:20:18.508Z,100186.75
2024-03-15T08:22:45.005Z,100188.38
2024-03-15T08:25:11.717Z,100184.50
2024-03-15T08:27:41.068Z,100174.59
2024-03-15T08:30:09.275Z,100179.88
2024-03-15T08:32:37.621Z,100174.94
2024-03-15T08:35:05.023Z,100173.09
2024-03-15T08:37:32.336Z,100172.22
2024-03-15T08:39:58.943Z,100172.06
2024-03-15T08:42:26.021Z,100178.59
2024-03-15T08:44:52.692Z,100173.16
2024-03-15T08:47:19.937Z,100182.78
2024-03-15T08:49:49.839Z,100179.63
2024-03-15T08:52:20.471Z,100178.69
2024-03-15T08:54:47.090Z,100186.31
2024-03-15T08:57:13.923Z,100188.22
2024-03-15T08:59:41.672Z,100171.22
2024-03-15T09:02:08.854Z,100173.06
2024-03-15T09:04:36.865Z,100165.13
2024-03-15T09:07:03.818Z,100171.16
2024-03-15T09:09:33.913Z,100165.75
2024-03-15T09:12:00.743Z,100165.22
2024-03-15T09:14:28.724Z,100171.50
2024-03-15T09:16:57.389Z,100166.78
2024-03-15T09:19:24.195Z,100161.88
2024-03-15T09:21:51.032Z,100154.53
2024-03-15T09:24:19.232Z,100158.63
2024-03-15T09:26:46.200Z,100165.09
2024-03-15T09:29:12.724Z,100162.41
2024-03-15T09:31:59.402Z,100161.25
2024-03-15T09:34:29.400Z,100159.97
2024-03-15T09:36:56.936Z,100159.94
2024-03-15T09:39:30.421Z,100152.09
2024-03-15T09:41:57.098Z,100165.13
2024-03-15T09:44:23.650Z,100154.69
2024-03-15T09:46:51.133Z,100158.16
2024-03-15T09:49:18.835Z,100149.69
2024-03-15T09:51:49.125Z,100145.94
2024-03-15T09:54:15.977Z,100144.38
2024-03-15T09:56:45.741Z,100145.25
2024-03-15T09:59:18.626Z,100151.88
2024-03-15T10:01:45.525Z,100154.59
2024-03-15T10:04:12.438Z,100142.03
2024-03-15T10:06:39.492Z,100152.22
2024-03-15T10:09:06.637Z,100145.66
2024-03-15T10:11:33.328Z,100139.53
2024-03-15T10:14:01.392Z,100141.91
2024-03-15T10:16:29.421Z,100146.22
2024-03-15T10:18:56.326Z,100131.78
2024-03-15T10:21:22.976Z,100149.97
2024-03-15T10:23:54.884Z,100135.03
2024-03-15T10:26:26.224Z,100136.00
2024-03-15T10:28:53.372Z,100130.75
2024-03-15T10:31:21.731Z,100114.47
2024-03-15T10:33:48.284Z,100121.16
2024-03-15T10:36:15.055Z,100124.22
2024-03-15T10:38:41.715Z,100124.28
2024-03-15T10:41:09.144Z,100122.94
2024-03-15T10:43:36.351Z,100125.94
2024-03-15T10:46:06.953Z,100124.47
2024-03-15T10:48:34.149Z,100121.53
2024-03-15T10:51:02.229Z,100115.63
2024-03-15T10:53:29.179Z,100107.00
2024-03-15T10:55:56.793Z,100110.31
2024-03-15T10:58:23.750Z,100103.25
2024-03-15T11:00:50.874Z,100105.81
2024-03-15T11:03:27.426Z,100099.56
2024-03-15T11:05:54.183Z,100094.81
2024-03-15T11:08:22.348Z,100098.09
2024-03-15T11:11:04.661Z,100094.66
2024-03-15T11:13:37.848Z,100092.84
2024-03-15T11:16:22.718Z,100090.91
2024-03-15T11:18:49.443Z,100085.59
2024-03-15T11:21:20.651Z,100089.50
2024-03-15T11:23:48.177Z,100089.78
2024-03-15T11:26:20.789Z,100094.31
2024-03-15T11:28:58.785Z,100088.41
2024-03-15T11:31:32.381Z,100083.41
2024-03-15T11:34:01.093Z,100074.13
2024-03-15T11:36:31.452Z,100087.09
2024-03-15T11:38:58.251Z,100088.28
2024-03-15T11:41:24.912Z,100090.59
2024-03-15T11:43:55.233Z,100081.41
2024-03-15T11:46:22.216Z,100073.03
2024-03-15T11:48:48.957Z,100076.91
2024-03-15T11:51:15.878Z,100071.13
2024-03-15T11:53:42.568Z,100073.84
2024-03-15T11:56:09.731Z,100072.59
2024-03-15T11:58:43.402Z,100070.66
2024-03-15T12:01:11.452Z,100065.00
2024-03-15T12:03:39.161Z,100068.22
2024-03-15T12:06:09.009Z,100060.69
2024-03-15T12:08:36.071Z,100064.72
2024-03-15T12:11:02.782Z,100059.00
2024-03-15T12:13:32.730Z,100063.25
2024-03-15T12:16:01.962Z,100059.84
2024-03-15T12:18:29.869Z,100058.13
2024-03-15T12:20:56.575Z,100054.09
2024-03-15T12:23:25.117Z,100054.66
2024-03-15T12:25:52.923Z,100062.00
2024-03-15T12:28:22.488Z,100054.69
2024-03-15T12:30:50.799Z,100055.97
2024-03-15T12:33:17.615Z,100040.66
2024-03-15T12:35:46.142Z,100054.09
2024-03-15T12:38:15.640Z,100049.94
2024-03-15T12:40:45.142Z,100050.72
2024-03-15T12:43:12.453Z,100038.19
2024-03-15T12:45:43.339Z,100047.91
2024-03-15T12:48:12.227Z,100034.47
2024-03-15T12:50:39.227Z,100032.13
2024-03-15T12:53:10.454Z,100036.22
2024-03-15T12:55:37.102Z,100043.38
2024-03-15T12:58:03.942Z,100030.72
2024-03-15T13:00:31.240Z,100033.06
2024-03-15T13:02:58.693Z,100029.84
2024-03-15T13:05:26.994Z,100022.66
2024-03-15T13:07:53.714Z,100027.31
2024-03-15T13:10:23.914Z,100021.28
2024-03-15T13:12:56.144Z,100025.16
2024-03-15T13:15:23.708Z,100017.31
2024-03-15T13:17:53.166Z,100029.06
2024-03-15T13:20:20.247Z,100023.91
2024-03-15T13:22:48.987Z,100017.66
2024-03-15T13:25:29.525Z,100014.94
2024-03-15T13:28:02.257Z,100015.25
2024-03-15T13:30:29.120Z,100008.00
2024-03-15T13:32:59.480Z,100007.13
2024-03-15T13:35:28.382Z,100008.06
2024-03-15T13:37:55.034Z,100014.41
2024-03-15T13:40:23.518Z,100013.94
2024-03-15T13:42:52.534Z,100017.28
2024-03-15T13:45:21.514Z,100011.31
2024-03-15T13:47:48.284Z,100007.44
2024-03-15T13:50:17.086Z,100003.13
2024-03-15T13:52:45.155Z,100003.34
2024-03-15T13:55:12.931Z,100007.19
2024-03-15T13:57:41.035Z,100004.59
2024-03-15T14:00:31.238Z,100000.81
2024-03-15T14:03:08.476Z,99990.44
2024-03-15T14:05:39.397Z,99980.78
2024-03-15T14:08:10.399Z,99995.84
2024-03-15T14:10:38.988Z,99983.09
2024-03-15T14:13:10.237Z,99990.88
2024-03-15T14:15:41.300Z,99991.06
2024-03-15T14:18:13.285Z,99990.91
2024-03-15T14:20:42.483Z,99980.78
2024-03-15T14:23:09.071Z,99994.16
2024-03-15T14:25:35.820Z,99976.47
2024-03-15T14:28:11.355Z,99991.63
2024-03-15T14:30:38.813Z,99984.41
2024-03-15T14:33:09.724Z,99973.25
2024-03-15T14:35:37.051Z,99977.00
2024-03-15T14:38:05.650Z,99977.69
2024-03-15T14:40:35.921Z,99981.09
2024-03-15T14:43:03.704Z,99966.22
2024-03-15T14:45:32.719Z,99962.53
2024-03-15T14:48:06.284Z,99953.75
2024-03-15T14:50:38.044Z,99956.09
2024-03-15T14:53:08.430Z,99946.81
2024-03-15T14:55:36.253Z,99939.06
2024-03-15T14:58:05.078Z,99938.31
2024-03-15T15:00:33.236Z,99950.00
2024-03-15T15:03:00.455Z,99945.16
2024-03-15T15:05:27.126Z,99945.44
2024-03-15T15:07:59.457Z,99943.69
2024-03-15T15:10:26.586Z,99949.56
2024-03-15T15:12:54.395Z,99953.94
2024-03-15T15:15:24.131Z,99950.13
2024-03-15T15:17:53.006Z,99937.38
2024-03-15T15:20:19.941Z,99949.88
2024-03-15T15:22:50.892Z,99946.88
2024-03-15T15:25:21.444Z,99946.31
2024-03-15T15:27:49.986Z,99940.09
2024-03-15T15:30:19.557Z,99946.09
2024-03-15T15:32:50.719Z,99943.38
2024-03-15T15:35:17.954Z,99954.91
2024-03-15T15:37:45.320Z,99937.75
2024-03-15T15:40:26.417Z,99939.88
2024-03-15T15:42:56.642Z,99951.66
2024-03-15T15:45:33.970Z,99945.56
2024-03-15T15:48:01.798Z,99931.69
2024-03-15T15:50:29.407Z,99938.19
2024-03-15T15:52:55.918Z,99925.72
2024-03-15T15:55:24.189Z,99938.50
2024-03-15T15:57:51.552Z,99936.09
2024-03-15T16:00:20.846Z,99936.81
2024-03-15T16:02:48.754Z,99937.53
2024-03-15T16:05:15.595Z,99933.41
2024-03-15T16:07:45.746Z,99931.69
2024-03-15T16:10:13.005Z,99934.53
2024-03-15T16:12:40.144Z,99923.91
2024-03-15T16:15:08.085Z,99929.28
2024-03-15T16:17:35.464Z,99933.25
2024-03-15T16:20:02.120Z,99932.97
2024-03-15T16:22:29.150Z,99927.72
2024-03-15T16:24:56.058Z,99924.91
2024-03-15T16:27:22.944Z,99932.44
2024-03-15T16:29:50.325Z,99926.75
2024-03-15T16:32:16.953Z,99925.56
2024-03-15T16:34:43.874Z,99927.84
2024-03-15T16:37:11.651Z,99938.75
2024-03-15T16:39:38.534Z,99936.66
2024-03-15T16:42:05.505Z,99930.25
2024-03-15T16:44:32.061Z,99933.66
2024-03-15T16:46:58.611Z,99935.75
2024-03-15T16:49:25.590Z,99930.69
2024-03-15T16:51:52.803Z,99941.28
2024-03-15T16:54:19.870Z,99936.31
2024-03-15T16:56:46.644Z,99935.19
2024-03-15T16:59:13.444Z,99933.47
2024-03-15T17:01:40.708Z,99927.25
2024-03-15T17:04:10.622Z,99928.81
2024-03-15T17:06:38.371Z,99932.22
2024-03-15T17:09:05.774Z,99937.63
2024-03-15T17:11:34.383Z,99934.09
2024-03-15T17:14:02.136Z,99940.75
2024-03-15T17:16:30.442Z,99937.88
2024-03-15T17:18:58.238Z,99932.63
2024-03-15T17:21:25.505Z,99941.88
2024-03-15T17:23:52.098Z,99943.84
2024-03-15T17:26:18.681Z,99939.75
2024-03-15T17:28:45.348Z,99934.59
2024-03-15T17:31:11.912Z,99934.75
2024-03-15T17:33:38.526Z,99939.31
2024-03-15T17:36:06.954Z,99939.72
2024-03-15T17:38:33.745Z,99934.75
2024-03-15T17:41:00.457Z,99933.88
2024-03-15T17:43:27.752Z,99938.78
2024-03-15T17:45:54.305Z,99942.09
2024-03-15T17:48:21.266Z,99938.97
2024-03-15T17:50:47.822Z,99939.00
2024-03-15T17:53:14.413Z,99939.13
2024-03-15T17:55:41.295Z,99938.59
2024-03-15T17:58:08.154Z,99925.38
2024-03-15T18:00:35.572Z,99934.16
2024-03-15T18:03:05.127Z,99933.88
2024-03-15T18:05:35.402Z,99939.81
2024-03-15T18:08:01.981Z,99934.97
2024-03-15T18:10:28.640Z,99931.31
2024-03-15T18:12:55.711Z,99932.16
2024-03-15T18:15:22.666Z,99936.53
2024-03-15T18:17:49.454Z,99932.72
2024-03-15T18:20:16.018Z,99932.13
2024-03-15T18:22:42.724Z,99933.59
2024-03-15T18:25:11.387Z,99932.13
2024-03-15T18:27:38.071Z,99935.13
2024-03-15T18:30:05.119Z,99938.06
2024-03-15T18:32:33.218Z,99938.22
2024-03-15T18:34:59.962Z,99934.22
2024-03-15T18:37:26.403Z,99932.13
2024-03-15T18:39:53.143Z,99931.94
2024-03-15T18:42:20.194Z,99935.94
2024-03-15T18:44:46.799Z,99933.50
2024-03-15T18:47:13.381Z,99929.09
2024-03-15T18:49:39.915Z,99930.56
2024-03-15T18:52:06.594Z,99936.34
2024-03-15T18:54:33.212Z,99931.22
2024-03-15T18:56:59.788Z,99930.97
2024-03-15T18:59:31.099Z,99920.16
2024-03-15T19:01:58.094Z,99931.69
2024-03-15T19:04:24.784Z,99918.59
2024-03-15T19:06:51.385Z,99915.78
2024-03-15T19:09:17.980Z,99918.50
2024-03-15T19:11:45.015Z,99916.66
2024-03-15T19:14:11.540Z,99920.16
2024-03-15T19:16:39.032Z,99902.13
2024-03-15T19:19:06.006Z,99902.31
2024-03-15T19:21:32.931Z,99905.00
2024-03-15T19:23:59.573Z,99907.88
2024-03-15T19:26:26.086Z,99896.22
2024-03-15T19:28:52.566Z,99889.13
2024-03-15T19:31:19.273Z,99890.25
2024-03-15T19:33:45.884Z,99894.97
2024-03-15T19:36:13.040Z,99889.59
2024-03-15T19:38:39.716Z,99881.78
2024-03-15T19:41:11.846Z,99872.16
2024-03-15T19:43:40.787Z,99879.94
2024-03-15T19:46:07.742Z,99877.97
2024-03-15T19:48:34.650Z,99882.03
2024-03-15T19:51:01.863Z,99877.69
2024-03-15T19:53:31.289Z,99870.19
2024-03-15T19:55:59.687Z,99889.84
2024-03-15T19:58:26.982Z,99882.75
2024-03-15T20:00:54.569Z,99885.28
2024-03-15T20:03:21.192Z,99880.47
2024-03-15T20:05:47.819Z,99879.28
2024-03-15T20:08:14.649Z,99869.81
2024-03-15T20:10:41.636Z,99878.47
2024-03-15T20:13:08.204Z,99881.59
2024-03-15T20:15:34.947Z,99874.41
2024-03-15T20:18:01.941Z,99879.28
2024-03-15T20:20:28.663Z,99876.16
2024-03-15T20:22:55.253Z,99872.56
2024-03-15T20:25:21.945Z,99890.66
2024-03-15T20:27:48.613Z,99880.47
2024-03-15T20:30:15.065Z,99870.81
2024-03-15T20:32:41.673Z,99875.22
2024-03-15T20:35:08.332Z,99871.22
2024-03-15T20:37:34.876Z,99867.72
2024-03-15T20:40:01.572Z,99869.84
2024-03-15T20:42:28.314Z,99867.81
2024-03-15T20:44:54.761Z,99882.53
2024-03-15T20:47:21.343Z,99871.22
2024-03-15T20:49:47.896Z,99857.59
2024-03-15T20:52:14.517Z,99874.16
2024-03-15T20:54:41.072Z,99866.25
2024-03-15T20:57:07.704Z,99875.78
2024-03-15T20:59:34.177Z,99865.88
2024-03-15T21:02:09.843Z,99857.94
2024-03-15T21:04:37.520Z,99856.75
2024-03-15T21:07:04.180Z,99869.41
2024-03-15T21:09:30.940Z,99856.78
2024-03-15T21:11:57.573Z,99863.59
2024-03-15T21:14:24.060Z,99855.31
2024-03-15T21:16:52.162Z,99857.91
2024-03-15T21:19:18.680Z,99866.81
2024-03-15T21:21:45.320Z,99860.31
2024-03-15T21:24:11.890Z,99865.13
2024-03-15T21:26:38.421Z,99862.94
2024-03-15T21:29:04.957Z,99852.63
2024-03-15T21:31:31.506Z,99855.22
2024-03-15T21:33:59.852Z,99853.31
2024-03-15T21:36:26.675Z,99861.03
2024-03-15T21:38:53.578Z,99862.09
2024-03-15T21:41:20.109Z,99860.25
2024-03-15T21:43:46.673Z,99856.84
2024-03-15T21:46:21.198Z,99851.28
2024-03-15T21:48:48.612Z,99849.56
2024-03-15T21:51:15.154Z,99850.94
2024-03-15T21:53:43.545Z,99849.28
2024-03-15T21:56:10.132Z,99848.59
2024-03-15T21:58:36.668Z,99858.63
2024-03-15T22:01:04.541Z,99853.13
2024-03-15T22:03:33.145Z,99850.03
2024-03-15T22:05:59.929Z,99855.81
2024-03-15T22:08:26.372Z,99843.03
2024-03-15T22:10:56.722Z,99842.44
2024-03-15T22:13:23.964Z,99842.91
2024-03-15T22:15:55.326Z,99839.91
2024-03-15T22:18:21.998Z,99848.28
2024-03-15T22:20:49.367Z,99837.34
2024-03-15T22:23:16.537Z,99847.56
2024-03-15T22:25:43.653Z,99849.66
2024-03-15T22:28:10.323Z,99851.09
2024-03-15T22:30:36.849Z,99842.72
2024-03-15T22:33:03.543Z,99850.25
2024-03-15T22:35:30.221Z,99851.91
2024-03-15T22:37:56.744Z,99844.44
2024-03-15T22:40:24.084Z,99841.78
2024-03-15T22:42:50.756Z,99842.00
2024-03-15T22:45:17.346Z,99844.53
2024-03-15T22:47:43.937Z,99833.44
2024-03-15T22:50:12.277Z,99830.78
2024-03-15T22:52:39.774Z,99828.81
2024-03-15T22:55:06.814Z,99830.59
2024-03-15T22:57:33.540Z,99835.56
2024-03-15T23:00:00.098Z,99832.81
2024-03-15T23:02:27.975Z,99827.84
2024-03-15T23:04:54.558Z,99825.22
2024-03-15T23:07:23.771Z,99818.84
2024-03-15T23:09:50.666Z,99823.34
2024-03-15T23:12:18.758Z,99819.41
2024-03-15T23:14:47.254Z,99825.16
2024-03-15T23:17:13.908Z,99811.63
2024-03-15T23:19:41.686Z,99820.03
2024-03-15T23:22:08.291Z,99811.44
2024-03-15T23:24:35.190Z,99813.28
2024-03-15T23:27:02.341Z,99812.72
2024-03-15T23:29:29.099Z,99811.44
2024-03-15T23:31:55.675Z,99816.22
2024-03-15T23:34:24.268Z,99806.94
2024-03-15T23:36:50.842Z,99802.50
2024-03-15T23:39:17.343Z,99802.69
2024-03-15T23:41:43.856Z,99807.78
2024-03-15T23:44:10.915Z,99808.13
2024-03-15T23:46:39.146Z,99811.66
2024-03-15T23:49:07.054Z,99801.16
2024-03-15T23:51:33.982Z,99797.56
2024-03-15T23:54:01.577Z,99786.72
2024-03-15T23:56:28.166Z,99784.06
2024-03-15T23:58:54.730Z,99789.38
